createdAt,value
2022-12-09T00:01:29.662Z,65.93
2022-12-09T00:03:56.265Z,65.65
2022-12-09T00:06:27.626Z,64.55
2022-12-09T00:08:55.463Z,68.90
2022-12-09T00:11:22.723Z,71.55
2022-12-09T00:13:50.182Z,74.10
2022-12-09T00:16:16.744Z,61.53
2022-12-09T00:18:43.791Z,56.33
2022-12-09T00:21:23.686Z,68.00
2022-12-09T00:23:51.285Z,67.60
2022-12-09T00:26:18.326Z,69.60
2022-12-09T00:28:45.009Z,73.97
2022-12-09T00:31:20.003Z,70.03
2022-12-09T00:33:46.465Z,62.00
2022-12-09T00:36:16.082Z,61.13
2022-12-09T00:38:43.094Z,61.95
2022-12-09T00:41:10.027Z,55.58
2022-12-09T00:43:36.564Z,63.58
2022-12-09T00:46:03.048Z,60.35
2022-12-09T00:48:29.915Z,55.72
2022-12-09T00:50:56.477Z,66.15
2022-12-09T00:53:22.954Z,55.88
2022-12-09T00:55:49.370Z,52.78
2022-12-09T00:58:16.075Z,56.60
2022-12-09T01:00:42.455Z,52.17
2022-12-09T01:03:13.139Z,64.45
2022-12-09T01:05:40.369Z,64.57
2022-12-09T01:08:07.478Z,65.97
2022-12-09T01:10:34.950Z,63.03
2022-12-09T01:13:01.348Z,65.22
2022-12-09T01:15:27.880Z,61.53
2022-12-09T01:17:54.322Z,62.47
2022-12-09T01:20:20.717Z,60.53
2022-12-09T01:22:47.599Z,59.05
2022-12-09T01:25:14.642Z,64.05
2022-12-09T01:27:41.350Z,66.28
2022-12-09T01:30:12.045Z,64.13
2022-12-09T01:32:38.744Z,67.05
2022-12-09T01:35:05.520Z,59.53
2022-12-09T01:37:33.146Z,64.35
2022-12-09T01:39:59.878Z,66.25
2022-12-09T01:42:26.791Z,61.90
2022-12-09T01:45:21.520Z,67.93
2022-12-09T01:47:49.707Z,64.65
2022-12-09T01:50:16.811Z,72.15
2022-12-09T01:52:44.702Z,90.63
2022-12-09T01:55:11.320Z,83.65
2022-12-09T01:57:46.151Z,68.10
2022-12-09T02:00:13.658Z,69.88
2022-12-09T02:02:43.876Z,65.72
2022-12-09T02:05:10.572Z,71.60
2022-12-09T02:07:37.314Z,62.38
2022-12-09T02:10:06.470Z,67.32
2022-12-09T02:12:36.395Z,60.58
2022-12-09T02:15:21.750Z,71.18
2022-12-09T02:17:54.671Z,62.28
2022-12-09T02:20:50.296Z,65.57
2022-12-09T02:23:25.120Z,71.43
2022-12-09T02:26:08.052Z,68.32
2022-12-09T02:28:46.101Z,58.08
2022-12-09T02:31:36.794Z,60.58
2022-12-09T02:34:11.612Z,63.75
2022-12-09T02:37:16.427Z,60.97
2022-12-09T02:40:18.690Z,67.57
2022-12-09T02:42:46.871Z,66.15
2022-12-09T02:45:14.153Z,65.55
2022-12-09T02:47:44.811Z,60.58
2022-12-09T02:50:14.467Z,73.50
2022-12-09T02:52:42.827Z,64.05
2022-12-09T02:55:10.100Z,61.25
2022-12-09T02:57:38.428Z,67.65
2022-12-09T03:00:06.798Z,66.68
2022-12-09T03:02:39.991Z,60.78
2022-12-09T03:05:22.087Z,53.47
2022-12-09T03:07:56.930Z,64.55
2022-12-09T03:10:33.268Z,60.03
2022-12-09T03:13:09.719Z,55.53
2022-12-09T03:15:37.769Z,57.10
2022-12-09T03:18:07.312Z,57.33
2022-12-09T03:20:36.979Z,55.28
2022-12-09T03:23:05.737Z,58.33
2022-12-09T03:25:39.796Z,57.38
2022-12-09T03:28:10.540Z,69.30
2022-12-09T03:30:39.708Z,61.85
2022-12-09T03:33:07.132Z,59.08
2022-12-09T03:35:36.447Z,66.03
2022-12-09T03:38:05.509Z,59.92
2022-12-09T03:40:32.994Z,60.17
2022-12-09T03:43:05.959Z,57.17
2022-12-09T03:45:32.537Z,69.47
2022-12-09T03:47:59.485Z,70.63
2022-12-09T03:50:29.459Z,72.03
2022-12-09T03:53:05.180Z,63.63
2022-12-09T03:55:52.585Z,61.72
2022-12-09T03:58:19.229Z,61.00
2022-12-09T04:00:46.292Z,66.43
2022-12-09T04:03:14.766Z,64.47
2022-12-09T04:05:43.242Z,64.65
2022-12-09T04:08:10.274Z,80.05
2022-12-09T04:10:36.745Z,71.82
2022-12-09T04:13:03.225Z,62.47
2022-12-09T04:15:29.637Z,63.10
2022-12-09T04:17:56.561Z,58.53
2022-12-09T04:20:23.036Z,65.63
2022-12-09T04:22:49.404Z,63.45
2022-12-09T04:25:15.886Z,62.55
2022-12-09T04:27:42.264Z,64.55
2022-12-09T04:30:09.392Z,52.95
2022-12-09T04:32:36.434Z,60.03
2022-12-09T04:35:02.997Z,59.00
2022-12-09T04:37:29.552Z,64.28
2022-12-09T04:39:56.347Z,54.97
2022-12-09T04:42:22.756Z,55.83
2022-12-09T04:44:49.114Z,58.58
2022-12-09T04:47:16.004Z,57.08
2022-12-09T04:49:42.807Z,56.58
2022-12-09T04:52:09.288Z,63.72
2022-12-09T04:54:35.695Z,68.78
2022-12-09T04:57:02.454Z,66.65
2022-12-09T04:59:30.906Z,58.47
2022-12-09T05:01:57.537Z,67.70
2022-12-09T05:04:24.775Z,61.80
2022-12-09T05:06:51.392Z,60.15
2022-12-09T05:09:18.286Z,59.00
2022-12-09T05:11:44.827Z,56.00
2022-12-09T05:14:11.369Z,50.67
2022-12-09T05:16:38.004Z,68.18
2022-12-09T05:19:04.773Z,75.03
2022-12-09T05:21:31.410Z,94.38
2022-12-09T05:23:58.273Z,77.43
2022-12-09T05:26:24.974Z,82.00
2022-12-09T05:28:51.854Z,63.65
2022-12-09T05:31:21.105Z,69.50
2022-12-09T05:33:48.794Z,68.72
2022-12-09T05:36:17.205Z,110.53
2022-12-09T05:38:44.396Z,115.85
2022-12-09T05:41:11.082Z,103.75
2022-12-09T05:43:37.726Z,71.45
2022-12-09T05:46:05.179Z,65.38
2022-12-09T05:48:32.596Z,72.88
2022-12-09T05:51:04.349Z,78.22
2022-12-09T05:53:31.611Z,73.20
2022-12-09T05:55:58.398Z,71.82
2022-12-09T05:58:25.206Z,75.43
2022-12-09T06:00:52.049Z,69.35
2022-12-09T06:03:18.895Z,81.20
2022-12-09T06:05:45.981Z,68.65
2022-12-09T06:08:12.729Z,71.93
2022-12-09T06:10:41.185Z,61.42
2022-12-09T06:13:08.534Z,63.72
2022-12-09T06:15:35.329Z,68.03
2022-12-09T06:18:02.139Z,72.53
2022-12-09T06:20:29.185Z,101.93
2022-12-09T06:22:55.916Z,115.35
2022-12-09T06:25:23.267Z,83.80
2022-12-09T06:27:49.789Z,82.72
2022-12-09T06:30:16.739Z,102.32
2022-12-09T06:32:43.283Z,92.32
2022-12-09T06:35:10.923Z,88.22
2022-12-09T06:37:37.613Z,81.93
2022-12-09T06:40:05.576Z,76.40
2022-12-09T06:42:32.052Z,84.85
2022-12-09T06:44:58.783Z,77.88
2022-12-09T06:47:25.675Z,78.70
2022-12-09T06:49:52.384Z,72.82
2022-12-09T06:52:19.064Z,78.68
2022-12-09T06:54:45.575Z,74.65
2022-12-09T06:57:12.096Z,72.47
2022-12-09T06:59:38.740Z,70.20
2022-12-09T07:02:05.561Z,64.88
2022-12-09T07:04:32.329Z,70.82
2022-12-09T07:06:59.115Z,68.50
2022-12-09T07:09:26.059Z,58.85
2022-12-09T07:11:52.892Z,65.40
2022-12-09T07:14:20.725Z,74.43
2022-12-09T07:16:48.066Z,71.35
2022-12-09T07:19:18.074Z,72.15
2022-12-09T07:21:44.963Z,67.07
2022-12-09T07:24:12.668Z,62.45
2022-12-09T07:26:39.430Z,62.20
2022-12-09T07:29:07.404Z,65.65
2022-12-09T07:31:34.634Z,73.88
2022-12-09T07:34:02.000Z,69.05
2022-12-09T07:36:30.337Z,72.50
2022-12-09T07:38:59.340Z,61.13
2022-12-09T07:41:25.932Z,61.25
2022-12-09T07:43:52.908Z,61.80
2022-12-09T07:46:20.889Z,72.88
2022-12-09T07:48:48.294Z,60.08
2022-12-09T07:51:15.245Z,67.95
2022-12-09T07:53:41.924Z,69.85
2022-12-09T07:56:11.811Z,66.18
2022-12-09T07:58:38.957Z,66.60
2022-12-09T08:01:13.415Z,60.83
2022-12-09T08:03:40.515Z,64.68
2022-12-09T08:06:09.256Z,68.80
2022-12-09T08:08:35.960Z,67.82
2022-12-09T08:11:11.485Z,68.78
2022-12-09T08:13:38.505Z,68.47
2022-12-09T08:16:07.123Z,76.38
2022-12-09T08:18:34.971Z,67.65
2022-12-09T08:21:14.020Z,71.65
2022-12-09T08:23:41.127Z,75.88
2022-12-09T08:26:10.412Z,77.70
2022-12-09T08:28:37.226Z,71.80
2022-12-09T08:31:15.507Z,70.78
2022-12-09T08:33:42.485Z,65.30
2022-12-09T08:36:12.999Z,67.75
2022-12-09T08:38:40.042Z,67.55
2022-12-09T08:41:13.238Z,66.40
2022-12-09T08:43:40.759Z,69.53
2022-12-09T08:46:07.988Z,64.25
2022-12-09T08:48:39.048Z,75.60
2022-12-09T08:51:06.466Z,75.03
2022-12-09T08:53:32.981Z,73.35
2022-12-09T08:55:59.945Z,66.10
2022-12-09T08:58:26.491Z,67.78
2022-12-09T09:00:53.403Z,70.50
2022-12-09T09:03:20.345Z,74.45
2022-12-09T09:05:47.659Z,73.00
2022-12-09T09:08:14.316Z,66.03
2022-12-09T09:10:41.015Z,72.55
2022-12-09T09:13:08.311Z,67.72
2022-12-09T09:15:35.066Z,71.07
2022-12-09T09:18:02.121Z,76.47
2022-12-09T09:20:28.909Z,64.25
2022-12-09T09:23:02.600Z,74.10
2022-12-09T09:25:29.967Z,70.28
2022-12-09T09:27:56.575Z,74.53
2022-12-09T09:30:23.538Z,71.97
2022-12-09T09:32:50.313Z,66.53
2022-12-09T09:35:17.258Z,65.85
2022-12-09T09:37:43.909Z,62.53
2022-12-09T09:40:10.837Z,58.20
2022-12-09T09:42:45.358Z,64.60
2022-12-09T09:45:15.874Z,53.90
2022-12-09T09:47:55.387Z,53.95
2022-12-09T09:50:31.937Z,54.42
2022-12-09T09:52:59.267Z,53.22
2022-12-09T09:55:40.759Z,58.65
2022-12-09T09:58:17.078Z,56.70
2022-12-09T10:01:09.536Z,60.53
2022-12-09T10:04:00.713Z,52.72
2022-12-09T10:06:43.517Z,59.33
2022-12-09T10:09:39.297Z,56.60
2022-12-09T10:12:15.469Z,53.92
2022-12-09T10:14:48.486Z,56.17
2022-12-09T10:17:20.916Z,52.28
2022-12-09T10:19:50.353Z,56.97
2022-12-09T10:22:22.071Z,56.53
2022-12-09T10:25:00.173Z,52.67
2022-12-09T10:27:38.194Z,52.25
2022-12-09T10:30:12.242Z,55.15
2022-12-09T10:32:40.272Z,55.97
2022-12-09T10:35:25.011Z,53.25
2022-12-09T10:37:54.205Z,54.75
2022-12-09T10:40:41.577Z,55.05
2022-12-09T10:43:44.215Z,58.58
2022-12-09T10:46:19.646Z,56.10
2022-12-09T10:48:46.880Z,51.13
2022-12-09T10:51:28.251Z,51.35
2022-12-09T10:53:59.046Z,48.53
2022-12-09T10:56:37.819Z,56.13
2022-12-09T10:59:10.624Z,59.40
2022-12-09T11:01:55.710Z,53.85
2022-12-09T11:04:34.228Z,56.08
2022-12-09T11:07:15.725Z,57.70
2022-12-09T11:09:43.739Z,58.03
2022-12-09T11:12:17.584Z,60.08
2022-12-09T11:14:58.400Z,61.55
2022-12-09T11:17:28.329Z,64.22
2022-12-09T11:20:17.627Z,61.65
2022-12-09T11:22:45.923Z,61.13
2022-12-09T11:25:15.807Z,56.13
2022-12-09T11:27:49.587Z,62.42
2022-12-09T11:30:35.068Z,57.42
2022-12-09T11:33:14.345Z,61.40
2022-12-09T11:35:44.144Z,66.55
2022-12-09T11:38:41.344Z,68.85
2022-12-09T11:41:43.259Z,64.80
2022-12-09T11:44:23.738Z,64.73
2022-12-09T11:47:00.331Z,66.68
2022-12-09T11:49:27.787Z,58.83
2022-12-09T11:52:01.936Z,65.28
2022-12-09T11:54:40.120Z,58.03
2022-12-09T11:57:21.168Z,62.38
2022-12-09T11:59:50.777Z,59.58
2022-12-09T12:02:37.508Z,65.63
2022-12-09T12:05:21.987Z,62.17
2022-12-09T12:08:00.861Z,61.40
2022-12-09T12:10:31.476Z,62.85
2022-12-09T12:13:00.937Z,57.08
2022-12-09T12:15:40.763Z,59.28
2022-12-09T12:18:13.402Z,60.25
2022-12-09T12:21:03.292Z,62.60
2022-12-09T12:24:20.157Z,59.70
2022-12-09T12:26:59.032Z,64.57
2022-12-09T12:29:34.948Z,63.53
2022-12-09T12:32:10.481Z,65.15
2022-12-09T12:34:49.074Z,64.65
2022-12-09T12:37:29.886Z,67.60
2022-12-09T12:40:37.246Z,71.68
2022-12-09T12:43:48.556Z,67.22
2022-12-09T12:46:29.945Z,69.88
2022-12-09T12:49:18.682Z,73.55
2022-12-09T12:51:54.662Z,69.70
2022-12-09T12:54:36.492Z,77.10
2022-12-09T12:57:11.696Z,71.15
2022-12-09T12:59:50.121Z,76.15
2022-12-09T13:02:28.691Z,73.60
2022-12-09T13:05:00.799Z,68.55
2022-12-09T13:07:45.747Z,69.50
2022-12-09T13:10:42.660Z,70.95
2022-12-09T13:13:18.664Z,76.00
2022-12-09T13:15:58.099Z,70.63
2022-12-09T13:18:36.963Z,75.35
2022-12-09T13:21:05.428Z,74.55
2022-12-09T13:23:40.999Z,71.55
2022-12-09T13:26:10.577Z,71.38
2022-12-09T13:28:46.823Z,78.35
2022-12-09T13:31:13.493Z,77.53
2022-12-09T13:33:44.009Z,77.22
2022-12-09T13:36:21.849Z,75.90
2022-12-09T13:38:48.611Z,80.85
2022-12-09T13:41:27.245Z,76.70
2022-12-09T13:43:54.683Z,80.65
2022-12-09T13:46:22.819Z,84.68
2022-12-09T13:48:49.621Z,85.47
2022-12-09T13:51:17.350Z,77.90
2022-12-09T13:53:50.762Z,80.43
2022-12-09T13:56:17.075Z,75.13
2022-12-09T13:59:11.497Z,77.65
2022-12-09T14:02:01.029Z,85.47
2022-12-09T14:04:33.765Z,75.22
2022-12-09T14:07:10.069Z,80.00
2022-12-09T14:09:46.812Z,81.90
2022-12-09T14:12:43.931Z,72.40
2022-12-09T14:15:25.672Z,79.15
2022-12-09T14:17:51.939Z,76.38
2022-12-09T14:20:21.271Z,74.25
2022-12-09T14:23:07.938Z,79.18
2022-12-09T14:25:34.186Z,59.85
2022-12-09T14:28:09.586Z,58.72
2022-12-09T14:30:52.915Z,61.90
2022-12-09T14:33:34.695Z,54.45
2022-12-09T14:36:13.241Z,74.68
2022-12-09T14:39:16.138Z,68.80
2022-12-09T14:41:58.578Z,70.10
2022-12-09T14:44:32.906Z,69.25
2022-12-09T14:47:32.341Z,81.65
2022-12-09T14:50:09.731Z,78.88
2022-12-09T14:52:36.504Z,83.10
2022-12-09T14:55:06.604Z,87.25
2022-12-09T14:58:00.619Z,89.75
2022-12-09T15:00:37.002Z,84.72
2022-12-09T15:03:36.895Z,100.50
2022-12-09T15:06:06.319Z,93.93
2022-12-09T15:08:38.047Z,92.93
2022-12-09T15:11:26.588Z,82.07
2022-12-09T15:13:55.382Z,91.90
2022-12-09T15:16:24.558Z,96.03
2022-12-09T15:18:51.822Z,90.68
2022-12-09T15:21:29.983Z,101.68
2022-12-09T15:23:57.584Z,102.97
2022-12-09T15:26:29.376Z,99.30
2022-12-09T15:28:57.333Z,96.38
2022-12-09T15:31:26.810Z,96.25
2022-12-09T15:33:58.634Z,94.60
2022-12-09T15:36:35.160Z,91.10
2022-12-09T15:39:11.491Z,94.95
2022-12-09T15:42:02.107Z,100.82
2022-12-09T15:44:32.841Z,90.18
2022-12-09T15:46:59.863Z,95.50
2022-12-09T15:49:29.835Z,95.22
2022-12-09T15:51:56.504Z,95.28
2022-12-09T15:54:26.694Z,96.50
2022-12-09T15:57:01.862Z,90.75
2022-12-09T15:59:35.331Z,89.97
2022-12-09T16:02:01.906Z,82.78
2022-12-09T16:04:31.919Z,85.30
2022-12-09T16:07:07.868Z,91.88
2022-12-09T16:09:34.352Z,88.35
2022-12-09T16:12:00.788Z,88.32
2022-12-09T16:14:41.429Z,92.03
2022-12-09T16:17:28.512Z,86.97
2022-12-09T16:19:55.097Z,83.60
2022-12-09T16:22:27.867Z,77.93
2022-12-09T16:25:14.538Z,74.90
2022-12-09T16:27:44.702Z,87.97
2022-12-09T16:30:17.403Z,87.45
2022-12-09T16:32:54.534Z,93.55
2022-12-09T16:35:40.835Z,89.80
2022-12-09T16:38:10.214Z,84.35
2022-12-09T16:40:45.609Z,85.03
2022-12-09T16:43:18.812Z,94.82
2022-12-09T16:45:50.073Z,84.60
2022-12-09T16:48:17.555Z,88.03
2022-12-09T16:51:11.786Z,92.80
2022-12-09T16:53:49.833Z,96.82
2022-12-09T16:56:19.566Z,93.03
2022-12-09T16:58:46.460Z,87.20
2022-12-09T17:01:14.778Z,88.50
2022-12-09T17:03:45.598Z,89.88
2022-12-09T17:06:17.607Z,95.28
2022-12-09T17:08:44.610Z,90.45
2022-12-09T17:11:11.455Z,95.97
2022-12-09T17:13:38.299Z,99.28
2022-12-09T17:16:05.800Z,107.45
2022-12-09T17:18:32.676Z,112.90
2022-12-09T17:21:01.061Z,108.05
2022-12-09T17:23:27.568Z,103.63
2022-12-09T17:25:58.452Z,105.47
2022-12-09T17:28:29.873Z,105.53
2022-12-09T17:30:57.646Z,84.05
2022-12-09T17:33:28.686Z,98.72
2022-12-09T17:35:55.597Z,95.18
2022-12-09T17:38:22.221Z,93.43
2022-12-09T17:40:49.036Z,88.03
2022-12-09T17:43:15.405Z,98.93
2022-12-09T17:45:42.489Z,95.40
2022-12-09T17:48:09.005Z,102.25
2022-12-09T17:50:37.826Z,95.88
2022-12-09T17:53:04.195Z,96.80
2022-12-09T17:55:30.931Z,98.28
2022-12-09T17:57:57.377Z,112.93
2022-12-09T18:00:23.930Z,104.15
2022-12-09T18:02:50.279Z,110.05
2022-12-09T18:05:16.640Z,99.00
2022-12-09T18:07:43.094Z,105.57
2022-12-09T18:10:10.594Z,112.00
2022-12-09T18:12:37.210Z,92.90
2022-12-09T18:15:04.018Z,95.65
2022-12-09T18:17:32.440Z,97.95
2022-12-09T18:19:58.784Z,93.35
2022-12-09T18:22:25.228Z,83.85
2022-12-09T18:24:51.561Z,80.95
2022-12-09T18:27:17.898Z,84.72
2022-12-09T18:29:44.232Z,76.20
2022-12-09T18:32:10.619Z,74.05
2022-12-09T18:34:36.993Z,78.30
2022-12-09T18:37:03.360Z,70.63
2022-12-09T18:39:29.863Z,72.00
2022-12-09T18:41:56.194Z,70.97
2022-12-09T18:44:22.612Z,70.15
2022-12-09T18:46:50.019Z,73.63
2022-12-09T18:49:21.752Z,77.45
2022-12-09T18:51:49.204Z,85.38
2022-12-09T18:54:18.741Z,83.68
2022-12-09T18:56:45.110Z,83.65
2022-12-09T18:59:12.109Z,77.00
2022-12-09T19:01:41.721Z,70.30
2022-12-09T19:04:14.095Z,75.03
2022-12-09T19:09:11.033Z,70.78
2022-12-09T19:11:39.083Z,68.35
2022-12-09T19:14:06.639Z,67.45
2022-12-09T19:16:33.258Z,68.32
2022-12-09T19:19:05.424Z,70.68
2022-12-09T19:21:34.218Z,66.85
2022-12-09T19:24:00.686Z,70.22
2022-12-09T19:26:29.505Z,73.95
2022-12-09T19:28:58.314Z,70.07
2022-12-09T19:31:30.301Z,72.90
2022-12-09T19:33:58.460Z,73.53
2022-12-09T19:36:25.889Z,72.57
2022-12-09T19:38:52.601Z,73.03
2022-12-09T19:41:19.270Z,76.43
2022-12-09T19:43:46.098Z,70.03
2022-12-09T19:46:14.481Z,83.07
2022-12-09T19:48:44.148Z,88.45
2022-12-09T19:51:15.396Z,86.60
2022-12-09T19:53:42.704Z,89.82
2022-12-09T19:56:12.335Z,83.13
2022-12-09T19:58:40.342Z,88.65
2022-12-09T20:01:11.963Z,103.00
2022-12-09T20:03:39.648Z,106.78
2022-12-09T20:06:07.735Z,94.22
2022-12-09T20:08:34.248Z,86.15
2022-12-09T20:11:00.702Z,78.32
2022-12-09T20:13:31.662Z,70.95
2022-12-09T20:16:03.631Z,72.55
2022-12-09T20:18:30.019Z,74.68
2022-12-09T20:21:00.614Z,79.50
2022-12-09T20:23:27.049Z,74.35
2022-12-09T20:25:53.851Z,71.35
2022-12-09T20:28:20.599Z,70.45
2022-12-09T20:30:46.967Z,77.25
2022-12-09T20:33:13.341Z,67.35
2022-12-09T20:35:39.726Z,75.60
2022-12-09T20:38:06.473Z,67.25
2022-12-09T20:40:40.379Z,71.18
2022-12-09T20:43:07.206Z,76.10
2022-12-09T20:45:33.574Z,73.63
2022-12-09T20:47:59.970Z,84.95
2022-12-09T20:50:26.324Z,73.05
2022-12-09T20:52:52.761Z,82.03
2022-12-09T20:55:20.438Z,74.75
2022-12-09T20:57:46.780Z,72.85
2022-12-09T21:00:13.394Z,76.13
2022-12-09T21:02:40.046Z,95.55
2022-12-09T21:05:08.202Z,89.78
2022-12-09T21:07:34.803Z,90.97
2022-12-09T21:10:01.323Z,103.75
2022-12-09T21:12:27.703Z,96.75
2022-12-09T21:14:54.071Z,94.20
2022-12-09T21:17:20.546Z,93.35
2022-12-09T21:19:47.171Z,85.28
2022-12-09T21:22:13.570Z,87.57
2022-12-09T21:24:39.936Z,83.70
2022-12-09T21:27:06.318Z,83.18
2022-12-09T21:29:32.728Z,88.57
2022-12-09T21:32:00.245Z,91.60
2022-12-09T21:34:27.135Z,86.40
2022-12-09T21:36:53.551Z,86.63
2022-12-09T21:39:19.972Z,72.32
2022-12-09T21:41:46.447Z,88.63
2022-12-09T21:44:18.335Z,91.88
2022-12-09T21:46:45.039Z,83.05
2022-12-09T21:49:11.787Z,81.05
2022-12-09T21:51:38.198Z,84.95
2022-12-09T21:54:04.747Z,85.97
2022-12-09T21:56:33.070Z,79.05
2022-12-09T21:58:59.954Z,79.00
2022-12-09T22:01:34.347Z,78.45
2022-12-09T22:04:02.554Z,79.32
2022-12-09T22:06:29.411Z,79.03
2022-12-09T22:08:58.152Z,82.18
2022-12-09T22:11:26.946Z,72.38
2022-12-09T22:13:58.323Z,75.88
2022-12-09T22:16:28.343Z,71.90
2022-12-09T22:18:56.546Z,78.28
2022-12-09T22:21:25.912Z,69.28
2022-12-09T22:23:59.543Z,77.88
2022-12-09T22:26:26.292Z,83.22
2022-12-09T22:28:53.184Z,83.60
2022-12-09T22:31:22.157Z,80.95
2022-12-09T22:33:55.151Z,84.97
2022-12-09T22:36:22.532Z,81.18
2022-12-09T22:38:48.989Z,78.80
2022-12-09T22:41:18.513Z,83.57
2022-12-09T22:43:45.457Z,79.32
2022-12-09T22:46:17.475Z,79.18
2022-12-09T22:48:44.048Z,74.63
2022-12-09T22:51:11.674Z,71.20
2022-12-09T22:53:38.804Z,83.35
2022-12-09T22:56:05.907Z,77.63
2022-12-09T22:58:33.729Z,74.32
2022-12-09T23:01:00.139Z,78.78
2022-12-09T23:03:26.563Z,69.60
2022-12-09T23:05:53.444Z,71.15
2022-12-09T23:08:20.096Z,81.80
2022-12-09T23:10:46.504Z,71.15
2022-12-09T23:13:12.883Z,64.47
2022-12-09T23:15:39.390Z,70.45
2022-12-09T23:18:06.139Z,75.70
2022-12-09T23:20:32.521Z,69.55
2022-12-09T23:22:58.900Z,72.60
2022-12-09T23:25:25.255Z,72.15
2022-12-09T23:27:51.923Z,70.88
2022-12-09T23:30:18.379Z,71.75
2022-12-09T23:32:44.761Z,70.13
2022-12-09T23:35:11.338Z,67.78
2022-12-09T23:37:37.725Z,78.57
2022-12-09T23:40:05.427Z,73.97
2022-12-09T23:42:31.928Z,72.05
2022-12-09T23:44:58.305Z,73.30
2022-12-09T23:47:24.716Z,75.65
2022-12-09T23:49:51.084Z,78.47
2022-12-09T23:52:17.968Z,69.68
2022-12-09T23:54:44.332Z,75.53
2022-12-09T23:57:10.688Z,77.18
2022-12-09T23:59:37.187Z,79.90
